createdAt,value
2019-04-16T00:01:21.947Z,74.63
2019-04-16T00:03:55.280Z,74.82
2019-04-16T00:06:31.583Z,74.33
2019-04-16T00:09:06.913Z,74.48
2019-04-16T00:11:47.100Z,75.49
2019-04-16T00:14:35.262Z,76.14
2019-04-16T00:17:04.656Z,75.90
2019-04-16T00:19:34.773Z,77.00
2019-04-16T00:22:32.656Z,76.67
2019-04-16T00:25:01.944Z,77.94
2019-04-16T00:27:31.324Z,76.99
2019-04-16T00:30:03.933Z,76.89
2019-04-16T00:32:31.649Z,77.47
2019-04-16T00:35:01.069Z,78.67
2019-04-16T00:37:30.391Z,79.94
2019-04-16T00:39:59.562Z,80.22
2019-04-16T00:42:28.780Z,81.59
2019-04-16T00:44:57.978Z,82.33
2019-04-16T00:47:27.179Z,82.89
2019-04-16T00:49:58.817Z,84.20
2019-04-16T00:52:27.277Z,85.22
2019-04-16T00:54:56.972Z,84.50
2019-04-16T00:57:26.262Z,83.51
2019-04-16T00:59:56.768Z,83.94
2019-04-16T01:02:26.182Z,84.19
2019-04-16T01:04:55.361Z,83.73
2019-04-16T01:07:24.576Z,84.84
2019-04-16T01:09:53.837Z,82.12
2019-04-16T01:12:23.034Z,82.35
2019-04-16T01:14:52.413Z,83.37
2019-04-16T01:17:21.581Z,84.17
2019-04-16T01:19:50.763Z,83.69
2019-04-16T01:22:19.921Z,82.90
2019-04-16T01:24:51.861Z,83.57
2019-04-16T01:27:23.321Z,83.93
2019-04-16T01:29:52.537Z,85.64
2019-04-16T01:32:45.657Z,86.83
2019-04-16T01:35:32.722Z,86.63
2019-04-16T01:38:19.900Z,87.35
2019-04-16T01:40:54.778Z,88.01
2019-04-16T01:43:25.746Z,86.65
2019-04-16T01:45:55.108Z,85.40
2019-04-16T01:48:24.307Z,85.49
2019-04-16T01:50:55.534Z,85.80
2019-04-16T01:53:26.185Z,87.43
2019-04-16T01:55:57.041Z,88.03
2019-04-16T01:58:26.279Z,88.71
2019-04-16T02:00:55.467Z,89.64
2019-04-16T02:06:07.571Z,89.59
2019-04-16T02:08:36.769Z,90.10
2019-04-16T02:11:09.579Z,90.35
2019-04-16T02:13:36.955Z,91.17
2019-04-16T02:16:06.344Z,90.99
2019-04-16T02:18:35.492Z,91.21
2019-04-16T02:21:09.604Z,90.25
2019-04-16T02:23:35.638Z,90.08
2019-04-16T02:26:05.004Z,89.68
2019-04-16T02:28:34.329Z,90.02
2019-04-16T02:31:03.519Z,90.27
2019-04-16T02:33:32.668Z,90.46
2019-04-16T02:36:01.984Z,90.88
2019-04-16T02:38:31.200Z,91.20
2019-04-16T02:41:00.504Z,92.21
2019-04-16T02:43:29.651Z,92.28
2019-04-16T02:45:58.962Z,92.55
2019-04-16T02:48:28.121Z,92.87
2019-04-16T02:51:05.300Z,93.06
2019-04-16T02:53:47.287Z,93.04
2019-04-16T02:56:44.429Z,93.29
2019-04-16T02:59:17.355Z,93.62
2019-04-16T03:02:14.904Z,93.58
2019-04-16T03:04:48.151Z,93.13
2019-04-16T03:07:17.775Z,93.53
2019-04-16T03:10:00.311Z,92.92
2019-04-16T03:12:20.963Z,93.41
2019-04-16T03:14:48.724Z,92.78
2019-04-16T03:17:39.627Z,92.53
2019-04-16T03:20:09.277Z,92.96
2019-04-16T03:22:38.451Z,93.56
2019-04-16T03:25:12.645Z,93.62
2019-04-16T03:27:39.030Z,93.70
2019-04-16T03:30:09.363Z,93.89
2019-04-16T03:32:58.384Z,94.73
2019-04-16T03:35:27.614Z,96.14
2019-04-16T03:37:56.806Z,96.17
2019-04-16T03:40:26.159Z,95.89
2019-04-16T03:42:58.976Z,93.49
2019-04-16T03:45:26.627Z,91.94
2019-04-16T03:47:55.805Z,91.15
2019-04-16T03:50:24.981Z,90.01
2019-04-16T03:52:54.167Z,90.43
2019-04-16T03:55:26.315Z,91.63
2019-04-16T03:57:54.399Z,92.13
2019-04-16T04:00:23.721Z,92.18
2019-04-16T04:02:55.089Z,92.68
2019-04-16T04:05:23.982Z,92.88
2019-04-16T04:07:55.226Z,93.39
2019-04-16T04:10:31.002Z,94.60
2019-04-16T04:12:55.166Z,95.07
2019-04-16T04:15:26.392Z,94.52
2019-04-16T04:17:55.253Z,93.58
2019-04-16T04:20:24.408Z,93.18
2019-04-16T04:22:56.781Z,92.93
2019-04-16T04:25:24.629Z,93.47
2019-04-16T04:27:53.896Z,93.53
2019-04-16T04:30:25.670Z,93.92
2019-04-16T04:32:55.589Z,93.87
2019-04-16T04:35:24.744Z,93.70
2019-04-16T04:37:53.944Z,93.60
2019-04-16T04:40:23.111Z,93.85
2019-04-16T04:42:57.783Z,94.71
2019-04-16T04:45:26.190Z,94.97
2019-04-16T04:47:55.516Z,94.55
2019-04-16T04:50:24.799Z,93.39
2019-04-16T04:52:53.994Z,92.44
2019-04-16T04:55:23.445Z,92.18
2019-04-16T04:57:54.198Z,92.39
2019-04-16T05:00:23.723Z,94.48
2019-04-16T05:02:52.887Z,94.43
2019-04-16T05:05:30.317Z,92.48
2019-04-16T05:08:00.630Z,90.87
2019-04-16T05:10:30.042Z,90.16
2019-04-16T05:13:00.610Z,90.71
2019-04-16T05:15:30.179Z,91.69
2019-04-16T05:17:59.405Z,91.84
2019-04-16T05:20:29.972Z,91.75
2019-04-16T05:22:59.311Z,91.65
2019-04-16T05:25:32.966Z,91.60
2019-04-16T05:27:59.461Z,91.78
2019-04-16T05:30:28.734Z,93.13
2019-04-16T05:32:57.993Z,92.33
2019-04-16T05:35:27.281Z,90.17
2019-04-16T05:37:56.531Z,88.34
2019-04-16T05:40:27.594Z,87.76
2019-04-16T05:42:58.886Z,87.79
2019-04-16T05:45:27.547Z,87.92
2019-04-16T05:47:56.709Z,86.94
2019-04-16T05:50:28.505Z,86.71
2019-04-16T05:52:57.731Z,86.99
2019-04-16T05:55:49.894Z,86.08
2019-04-16T05:58:18.605Z,86.13
2019-04-16T06:01:05.712Z,86.27
2019-04-16T06:03:34.988Z,85.83
2019-04-16T06:06:04.185Z,85.80
2019-04-16T06:08:33.343Z,85.20
2019-04-16T06:11:02.526Z,84.62
2019-04-16T06:13:46.681Z,84.33
2019-04-16T06:16:43.994Z,74.77
2019-04-16T06:19:31.190Z,67.99
2019-04-16T06:22:18.087Z,64.23
2019-04-16T06:25:12.216Z,60.91
2019-04-16T06:27:55.515Z,62.02
2019-04-16T06:30:48.297Z,69.29
2019-04-16T06:33:25.134Z,72.58
2019-04-16T06:36:13.306Z,74.38
2019-04-16T06:38:45.867Z,75.46
2019-04-16T06:41:41.958Z,76.45
2019-04-16T06:44:14.997Z,75.29
2019-04-16T06:46:54.886Z,76.53
2019-04-16T06:49:41.942Z,75.40
2019-04-16T06:52:42.509Z,75.56
2019-04-16T06:55:28.865Z,72.92
2019-04-16T06:58:12.461Z,71.76
2019-04-16T07:01:07.935Z,72.71
2019-04-16T07:03:49.750Z,72.38
2019-04-16T07:06:37.167Z,71.89
2019-04-16T07:09:41.501Z,71.04
2019-04-16T07:12:07.606Z,70.87
2019-04-16T07:14:36.806Z,70.92
2019-04-16T07:17:05.966Z,70.69
2019-04-16T07:19:35.178Z,70.18
2019-04-16T07:22:04.432Z,70.24
2019-04-16T07:24:36.828Z,69.26
2019-04-16T07:27:04.700Z,67.49
2019-04-16T07:29:47.393Z,64.72
2019-04-16T07:32:38.685Z,66.87
2019-04-16T07:35:19.011Z,65.13
2019-04-16T07:38:11.301Z,65.01
2019-04-16T07:40:59.505Z,64.55
2019-04-16T07:43:46.559Z,66.80
2019-04-16T07:46:34.706Z,64.98
2019-04-16T07:49:13.790Z,64.94
2019-04-16T07:52:00.832Z,64.77
2019-04-16T07:54:47.887Z,63.06
2019-04-16T07:57:17.049Z,64.45
2019-04-16T07:59:46.244Z,64.80
2019-04-16T08:02:17.703Z,64.15
2019-04-16T08:04:46.385Z,62.84
2019-04-16T08:07:20.213Z,62.49
2019-04-16T08:09:46.741Z,63.68
2019-04-16T08:12:29.327Z,63.29
2019-04-16T08:14:49.000Z,64.83
2019-04-16T08:17:18.353Z,61.08
2019-04-16T08:19:48.968Z,60.76
2019-04-16T08:22:18.745Z,59.65
2019-04-16T08:24:57.586Z,60.63
2019-04-16T08:27:23.854Z,59.72
2019-04-16T08:29:53.280Z,59.64
2019-04-16T08:32:25.634Z,60.02
2019-04-16T08:34:53.754Z,60.62
2019-04-16T08:37:22.945Z,57.80
2019-04-16T08:39:52.418Z,58.26
2019-04-16T08:42:24.683Z,56.61
2019-04-16T08:44:52.544Z,57.27
2019-04-16T08:47:21.768Z,56.39
2019-04-16T08:49:54.077Z,56.18
2019-04-16T08:52:22.046Z,56.50
2019-04-16T08:54:54.752Z,55.26
2019-04-16T08:57:22.435Z,55.64
2019-04-16T08:59:51.636Z,55.22
2019-04-16T09:02:23.507Z,55.02
2019-04-16T09:04:53.383Z,55.13
2019-04-16T09:07:41.219Z,54.75
2019-04-16T09:10:23.551Z,54.78
2019-04-16T09:13:03.450Z,52.82
2019-04-16T09:15:27.313Z,52.71
2019-04-16T09:18:09.389Z,52.96
2019-04-16T09:20:40.513Z,51.96
2019-04-16T09:23:09.764Z,52.24
2019-04-16T09:26:12.983Z,50.46
2019-04-16T09:28:43.911Z,52.22
2019-04-16T09:31:37.902Z,50.43
2019-04-16T09:34:24.006Z,49.63
2019-04-16T09:37:12.266Z,50.88
2019-04-16T09:40:16.657Z,50.82
2019-04-16T09:42:40.651Z,50.27
2019-04-16T09:45:11.799Z,50.04
2019-04-16T09:47:41.001Z,49.89
2019-04-16T09:50:11.543Z,51.37
2019-04-16T09:52:40.899Z,49.73
2019-04-16T09:55:10.062Z,49.61
2019-04-16T09:57:39.241Z,49.25
2019-04-16T10:00:11.751Z,49.60
2019-04-16T10:02:41.149Z,51.48
2019-04-16T10:05:10.720Z,47.92
2019-04-16T10:07:41.032Z,47.55
2019-04-16T10:10:10.618Z,48.58
2019-04-16T10:12:39.850Z,47.63
2019-04-16T10:15:10.045Z,47.54
2019-04-16T10:17:39.393Z,47.62
2019-04-16T10:20:08.825Z,47.09
2019-04-16T10:22:38.009Z,45.89
2019-04-16T10:25:15.168Z,45.94
2019-04-16T10:28:06.445Z,45.85
2019-04-16T10:30:46.655Z,46.79
2019-04-16T10:33:15.871Z,46.00
2019-04-16T10:35:45.014Z,46.64
2019-04-16T10:38:29.247Z,45.18
2019-04-16T10:41:05.223Z,46.48
2019-04-16T10:43:45.285Z,45.71
2019-04-16T10:46:26.434Z,45.03
2019-04-16T10:49:10.782Z,44.36
2019-04-16T10:52:03.969Z,45.02
2019-04-16T10:54:40.647Z,45.14
2019-04-16T10:57:31.194Z,45.31
2019-04-16T11:00:13.608Z,45.04
2019-04-16T11:02:45.990Z,45.65
2019-04-16T11:05:40.312Z,46.28
2019-04-16T11:08:10.755Z,43.94
2019-04-16T11:10:39.949Z,43.53
2019-04-16T11:13:12.554Z,47.17
2019-04-16T11:15:41.842Z,45.47
2019-04-16T11:18:10.931Z,44.14
2019-04-16T11:20:40.108Z,43.70
2019-04-16T11:23:09.333Z,41.94
2019-04-16T11:25:38.716Z,42.02
2019-04-16T11:28:07.945Z,43.17
2019-04-16T11:30:40.329Z,42.59
2019-04-16T11:33:09.694Z,40.85
2019-04-16T11:35:38.901Z,42.91
2019-04-16T11:38:09.104Z,41.66
2019-04-16T11:40:41.076Z,42.33
2019-04-16T11:43:09.549Z,41.92
2019-04-16T11:45:38.820Z,41.56
2019-04-16T11:48:08.056Z,41.98
2019-04-16T11:50:37.335Z,40.51
2019-04-16T11:53:06.523Z,40.46
2019-04-16T11:55:35.817Z,40.70
2019-04-16T11:58:10.459Z,39.72
2019-04-16T12:00:45.629Z,39.43
2019-04-16T12:03:36.536Z,41.25
2019-04-16T12:06:28.358Z,41.25
2019-04-16T12:09:22.157Z,42.77
2019-04-16T12:12:02.485Z,41.65
2019-04-16T12:14:56.856Z,42.11
2019-04-16T12:17:36.307Z,42.39
2019-04-16T12:20:20.178Z,41.00
2019-04-16T12:23:02.827Z,41.46
2019-04-16T12:25:48.618Z,41.09
2019-04-16T12:28:35.531Z,41.00
2019-04-16T12:31:09.631Z,40.62
2019-04-16T12:33:57.804Z,40.96
2019-04-16T12:36:45.969Z,41.32
2019-04-16T12:39:35.781Z,41.42
2019-04-16T12:42:08.205Z,42.35
2019-04-16T12:45:09.536Z,43.10
2019-04-16T12:47:49.108Z,44.03
2019-04-16T12:50:35.335Z,44.58
2019-04-16T12:53:15.332Z,44.77
2019-04-16T12:56:08.574Z,46.15
2019-04-16T12:58:51.682Z,44.68
2019-04-16T13:01:40.011Z,46.33
2019-04-16T13:04:28.316Z,47.71
2019-04-16T13:07:01.343Z,47.79
2019-04-16T13:09:48.572Z,47.35
2019-04-16T13:12:26.708Z,47.84
2019-04-16T13:15:14.361Z,46.62
2019-04-16T13:18:09.726Z,46.75
2019-04-16T13:21:16.334Z,47.32
2019-04-16T13:23:52.564Z,47.24
2019-04-16T13:26:37.209Z,47.08
2019-04-16T13:29:11.833Z,46.33
2019-04-16T13:31:41.536Z,45.77
2019-04-16T13:34:10.723Z,45.89
2019-04-16T13:36:40.134Z,45.00
2019-04-16T13:39:25.097Z,44.95
2019-04-16T13:41:54.256Z,44.38
2019-04-16T13:44:25.427Z,43.81
2019-04-16T13:46:54.639Z,42.91
2019-04-16T13:49:42.989Z,42.37
2019-04-16T13:52:12.390Z,41.58
2019-04-16T13:55:10.402Z,40.70
2019-04-16T13:57:40.091Z,41.20
2019-04-16T14:00:23.636Z,41.85
2019-04-16T14:02:54.766Z,40.72
2019-04-16T14:05:24.340Z,41.73
2019-04-16T14:07:53.549Z,41.33
2019-04-16T14:10:22.814Z,42.07
2019-04-16T14:12:51.994Z,39.83
2019-04-16T14:15:31.706Z,40.19
2019-04-16T14:17:59.096Z,41.45
2019-04-16T14:20:25.378Z,43.31
2019-04-16T14:22:54.754Z,41.52
2019-04-16T14:25:23.955Z,40.20
2019-04-16T14:27:55.681Z,42.31
2019-04-16T14:30:28.924Z,46.89
2019-04-16T14:32:58.264Z,42.79
2019-04-16T14:35:33.418Z,43.51
2019-04-16T14:38:00.988Z,43.51
2019-04-16T14:40:30.860Z,42.14
2019-04-16T14:43:00.227Z,43.46
2019-04-16T14:45:58.282Z,40.16
2019-04-16T14:48:20.628Z,39.57
2019-04-16T14:50:49.791Z,42.37
2019-04-16T14:53:37.892Z,38.98
2019-04-16T14:56:18.860Z,40.53
2019-04-16T14:59:29.906Z,41.41
2019-04-16T15:01:52.749Z,42.18
2019-04-16T15:04:35.293Z,41.62
2019-04-16T15:07:10.327Z,40.34
2019-04-16T15:09:53.272Z,41.37
2019-04-16T15:12:53.478Z,41.38
2019-04-16T15:15:45.001Z,43.28
2019-04-16T15:18:27.335Z,42.98
2019-04-16T15:21:33.694Z,42.93
2019-04-16T15:24:20.205Z,44.28
2019-04-16T15:27:20.722Z,44.20
2019-04-16T15:30:11.695Z,44.54
2019-04-16T15:32:58.226Z,47.17
2019-04-16T15:35:38.266Z,45.00
2019-04-16T15:38:26.605Z,46.92
2019-04-16T15:40:58.976Z,45.55
2019-04-16T15:43:50.367Z,47.09
2019-04-16T15:46:40.975Z,43.75
2019-04-16T15:49:14.763Z,44.92
2019-04-16T15:51:51.575Z,45.44
2019-04-16T15:54:39.716Z,42.83
2019-04-16T15:57:32.020Z,42.96
2019-04-16T16:00:16.619Z,44.11
2019-04-16T16:02:59.281Z,46.33
2019-04-16T16:05:32.023Z,46.17
2019-04-16T16:08:14.123Z,43.46
2019-04-16T16:10:53.043Z,44.79
2019-04-16T16:13:22.654Z,44.94
2019-04-16T16:15:53.115Z,45.65
2019-04-16T16:18:22.337Z,48.54
2019-04-16T16:20:51.502Z,46.31
2019-04-16T16:23:20.804Z,46.28
2019-04-16T16:25:50.129Z,47.12
2019-04-16T16:28:19.430Z,48.28
2019-04-16T16:30:48.597Z,46.16
2019-04-16T16:33:17.807Z,46.99
2019-04-16T16:35:57.523Z,48.05
2019-04-16T16:38:20.812Z,48.39
2019-04-16T16:40:49.718Z,48.12
2019-04-16T16:43:19.670Z,48.64
2019-04-16T16:46:20.145Z,48.16
2019-04-16T16:48:54.692Z,48.94
2019-04-16T16:51:24.844Z,49.73
2019-04-16T16:54:11.451Z,53.99
2019-04-16T16:56:47.630Z,58.73
2019-04-16T16:59:26.269Z,63.68
2019-04-16T17:02:10.469Z,64.66
2019-04-16T17:04:43.520Z,65.91
2019-04-16T17:07:12.893Z,64.11
2019-04-16T17:09:42.131Z,64.86
2019-04-16T17:12:11.574Z,65.94
2019-04-16T17:14:40.770Z,64.45
2019-04-16T17:17:14.741Z,65.54
2019-04-16T17:19:41.403Z,64.51
2019-04-16T17:22:14.654Z,64.26
2019-04-16T17:24:42.813Z,66.04
2019-04-16T17:27:12.091Z,65.60
2019-04-16T17:29:41.295Z,64.10
2019-04-16T17:32:11.025Z,64.12
2019-04-16T17:34:41.836Z,64.73
2019-04-16T17:37:11.078Z,64.58
2019-04-16T17:39:52.434Z,64.00
2019-04-16T17:42:36.994Z,65.03
2019-04-16T17:45:21.077Z,65.11
2019-04-16T17:48:24.939Z,62.88
2019-04-16T17:51:13.106Z,64.98
2019-04-16T17:53:45.937Z,65.24
2019-04-16T17:56:34.459Z,63.46
2019-04-16T17:59:29.058Z,62.61
2019-04-16T18:02:21.030Z,61.03
2019-04-16T18:05:13.633Z,62.25
2019-04-16T18:08:08.302Z,62.47
2019-04-16T18:10:58.071Z,63.33
2019-04-16T18:13:58.747Z,64.03
2019-04-16T18:16:34.945Z,64.13
2019-04-16T18:19:38.314Z,64.20
2019-04-16T18:22:45.765Z,66.06
2019-04-16T18:25:54.915Z,67.15
2019-04-16T18:28:14.960Z,68.07
2019-04-16T18:30:52.359Z,69.72
2019-04-16T18:33:40.607Z,70.96
2019-04-16T18:36:19.762Z,72.50
2019-04-16T18:39:05.891Z,74.31
2019-04-16T18:41:57.152Z,74.97
2019-04-16T18:44:55.103Z,76.46
2019-04-16T18:47:39.573Z,77.11
2019-04-16T18:50:16.295Z,78.58
2019-04-16T18:52:45.782Z,79.26
2019-04-16T18:55:15.000Z,79.77
2019-04-16T18:57:44.212Z,80.09
2019-04-16T19:00:31.912Z,79.96
2019-04-16T19:03:01.676Z,80.57
2019-04-16T19:05:31.159Z,80.88
2019-04-16T19:08:01.028Z,82.31
2019-04-16T19:10:30.860Z,82.98
2019-04-16T19:13:00.535Z,82.23
2019-04-16T19:15:30.305Z,82.76
2019-04-16T19:17:59.697Z,84.07
2019-04-16T19:20:28.855Z,84.07
2019-04-16T19:22:58.087Z,85.01
2019-04-16T19:25:27.329Z,85.32
2019-04-16T19:27:56.747Z,85.13
2019-04-16T19:30:25.923Z,85.19
2019-04-16T19:33:00.262Z,85.85
2019-04-16T19:35:26.211Z,84.84
2019-04-16T19:37:55.397Z,85.02
2019-04-16T19:40:24.645Z,86.26
2019-04-16T19:42:54.048Z,87.27
2019-04-16T19:45:23.507Z,86.73
2019-04-16T19:48:00.318Z,87.42
2019-04-16T19:50:33.095Z,87.82
2019-04-16T19:52:57.289Z,88.31
2019-04-16T19:55:27.970Z,88.89
2019-04-16T19:57:58.004Z,89.18
2019-04-16T20:00:27.350Z,89.38
2019-04-16T20:02:56.819Z,89.50
2019-04-16T20:05:28.771Z,89.75
2019-04-16T20:07:57.757Z,90.20
2019-04-16T20:10:27.003Z,90.53
2019-04-16T20:12:59.190Z,91.99
2019-04-16T20:15:27.587Z,92.44
2019-04-16T20:17:57.292Z,93.45
2019-04-16T20:20:26.491Z,94.50
2019-04-16T20:22:55.719Z,95.88
2019-04-16T20:25:24.935Z,96.40
2019-04-16T20:27:54.164Z,96.65
2019-04-16T20:30:24.500Z,97.16
2019-04-16T20:32:53.674Z,97.44
2019-04-16T20:35:22.839Z,97.38
2019-04-16T20:37:54.271Z,97.63
2019-04-16T20:40:24.138Z,97.80
2019-04-16T20:42:53.653Z,97.95
2019-04-16T20:45:22.981Z,97.74
2019-04-16T20:47:52.176Z,98.26
2019-04-16T20:50:21.550Z,98.44
2019-04-16T20:52:51.071Z,98.59
2019-04-16T20:55:20.254Z,98.68
2019-04-16T20:57:49.607Z,98.49
2019-04-16T21:00:26.455Z,98.02
2019-04-16T21:02:57.032Z,98.21
2019-04-16T21:05:26.213Z,98.69
2019-04-16T21:07:55.421Z,99.11
2019-04-16T21:10:24.928Z,99.44
2019-04-16T21:12:55.067Z,100.00
2019-04-16T21:15:27.485Z,100.00
2019-04-16T21:17:55.681Z,100.00
2019-04-16T21:20:24.985Z,100.00
2019-04-16T21:22:57.394Z,100.00
2019-04-16T21:25:25.604Z,100.00
2019-04-16T21:28:14.417Z,100.00
2019-04-16T21:30:44.356Z,100.00
2019-04-16T21:33:20.442Z,100.00
2019-04-16T21:35:52.550Z,100.00
2019-04-16T21:38:42.276Z,100.00
2019-04-16T21:41:10.682Z,100.00
2019-04-16T21:43:40.421Z,100.00
2019-04-16T21:46:09.657Z,100.00
2019-04-16T21:48:39.491Z,100.00
2019-04-16T21:51:08.659Z,100.00
2019-04-16T21:53:37.847Z,100.00
2019-04-16T21:56:08.890Z,100.00
2019-04-16T21:58:38.367Z,100.00
2019-04-16T22:03:11.027Z,100.00
2019-04-16T22:05:40.262Z,100.00
2019-04-16T22:08:09.627Z,100.00
2019-04-16T22:10:38.965Z,100.00
2019-04-16T22:13:08.152Z,100.00
2019-04-16T22:15:37.324Z,100.00
2019-04-16T22:18:08.981Z,100.00
2019-04-16T22:20:37.431Z,100.00
2019-04-16T22:23:07.000Z,100.00
2019-04-16T22:25:36.308Z,100.00
2019-04-16T22:28:05.513Z,100.00
2019-04-16T22:30:35.804Z,100.00
2019-04-16T22:33:07.026Z,100.00
2019-04-16T22:35:36.207Z,100.00
2019-04-16T22:38:05.438Z,100.00
2019-04-16T22:40:44.560Z,100.00
2019-04-16T22:43:31.677Z,100.00
2019-04-16T22:46:19.959Z,100.00
2019-04-16T22:48:56.541Z,100.00
2019-04-16T22:51:26.711Z,100.00
2019-04-16T22:53:56.240Z,100.00
2019-04-16T22:56:53.748Z,100.00
2019-04-16T22:59:23.004Z,100.00
2019-04-16T23:01:53.370Z,100.00
2019-04-16T23:04:26.059Z,100.00
2019-04-16T23:06:53.938Z,100.00
2019-04-16T23:09:25.240Z,100.00
2019-04-16T23:11:55.898Z,100.00
2019-04-16T23:14:25.610Z,100.00
2019-04-16T23:16:55.074Z,100.00
2019-04-16T23:19:24.440Z,100.00
2019-04-16T23:21:53.645Z,100.00
2019-04-16T23:24:23.990Z,100.00
2019-04-16T23:26:53.310Z,100.00
2019-04-16T23:29:22.472Z,100.00
2019-04-16T23:31:55.056Z,100.00
2019-04-16T23:34:22.603Z,100.00
2019-04-16T23:36:51.945Z,100.00
2019-04-16T23:39:22.571Z,100.00
2019-04-16T23:41:51.753Z,100.00
2019-04-16T23:44:39.854Z,100.00
2019-04-16T23:47:25.750Z,100.00
2019-04-16T23:50:43.833Z,100.00
2019-04-16T23:53:07.982Z,100.00
2019-04-16T23:56:01.584Z,100.00
2019-04-16T23:58:46.455Z,100.00
